createdAt,value
2018-07-25T00:00:20.749Z,65.88
2018-07-25T00:01:20.764Z,66.06
2018-07-25T00:02:20.778Z,65.49
2018-07-25T00:03:20.795Z,65.97
2018-07-25T00:04:21.109Z,66.45
2018-07-25T00:05:21.438Z,66.55
2018-07-25T00:06:20.827Z,66.83
2018-07-25T00:07:20.845Z,66.71
2018-07-25T00:08:20.852Z,67.50
2018-07-25T00:09:21.039Z,67.32
2018-07-25T00:10:20.882Z,66.83
2018-07-25T00:11:20.882Z,66.74
2018-07-25T00:12:20.912Z,66.74
2018-07-25T00:13:20.917Z,67.76
2018-07-25T00:14:21.117Z,67.22
2018-07-25T00:15:20.944Z,67.60
2018-07-25T00:16:20.933Z,68.75
2018-07-25T00:17:20.972Z,68.18
2018-07-25T00:18:20.960Z,68.24
2018-07-25T00:19:21.296Z,68.37
2018-07-25T00:20:21.011Z,68.05
2018-07-25T00:21:21.064Z,68.27
2018-07-25T00:22:21.031Z,68.72
2018-07-25T00:23:21.043Z,68.43
2018-07-25T00:24:21.160Z,68.81
2018-07-25T00:25:21.070Z,68.91
2018-07-25T00:26:21.086Z,69.29
2018-07-25T00:27:21.077Z,69.20
2018-07-25T00:28:21.111Z,69.20
2018-07-25T00:29:21.293Z,69.29
2018-07-25T00:30:21.129Z,69.48
2018-07-25T00:31:21.145Z,68.62
2018-07-25T00:32:21.137Z,68.43
2018-07-25T00:33:21.175Z,68.52
2018-07-25T00:34:21.364Z,68.43
2018-07-25T00:35:21.184Z,68.52
2018-07-25T00:36:21.269Z,68.72
2018-07-25T00:37:21.221Z,69.10
2018-07-25T00:38:21.232Z,68.81
2018-07-25T00:39:21.337Z,68.62
2018-07-25T00:40:21.271Z,69.68
2018-07-25T00:41:21.272Z,69.58
2018-07-25T00:42:21.672Z,70.35
2018-07-25T00:43:21.295Z,70.25
2018-07-25T00:44:21.452Z,70.54
2018-07-25T00:45:21.344Z,70.92
2018-07-25T00:46:21.336Z,70.73
2018-07-25T00:47:21.349Z,70.12
2018-07-25T00:48:21.360Z,70.15
2018-07-25T00:49:21.535Z,70.25
2018-07-25T00:50:21.376Z,70.35
2018-07-25T00:51:21.393Z,70.06
2018-07-25T00:52:21.407Z,69.77
2018-07-25T00:53:21.427Z,69.48
2018-07-25T00:54:21.567Z,69.29
2018-07-25T00:55:21.451Z,69.20
2018-07-25T00:56:21.460Z,69.87
2018-07-25T00:57:21.480Z,69.39
2018-07-25T00:58:21.482Z,69.96
2018-07-25T00:59:21.818Z,70.44
2018-07-25T01:00:21.512Z,69.87
2018-07-25T01:01:21.527Z,70.15
2018-07-25T01:02:21.539Z,70.35
2018-07-25T01:03:21.544Z,70.64
2018-07-25T01:04:21.577Z,71.02
2018-07-25T01:05:21.727Z,70.73
2018-07-25T01:06:21.572Z,71.78
2018-07-25T01:07:21.599Z,71.69
2018-07-25T01:08:21.595Z,71.66
2018-07-25T01:09:21.638Z,71.50
2018-07-25T01:10:21.639Z,71.98
2018-07-25T01:11:21.754Z,71.11
2018-07-25T01:12:21.665Z,70.73
2018-07-25T01:13:21.911Z,70.70
2018-07-25T01:14:21.890Z,70.70
2018-07-25T01:15:21.765Z,70.79
2018-07-25T01:16:21.725Z,70.92
2018-07-25T01:17:22.030Z,71.27
2018-07-25T01:18:21.740Z,71.31
2018-07-25T01:19:21.792Z,70.92
2018-07-25T01:20:21.768Z,71.08
2018-07-25T01:21:21.778Z,70.98
2018-07-25T01:22:21.948Z,71.17
2018-07-25T01:23:21.782Z,71.27
2018-07-25T01:24:21.832Z,72.13
2018-07-25T01:25:21.847Z,72.13
2018-07-25T01:26:21.837Z,72.03
2018-07-25T01:27:22.016Z,72.03
2018-07-25T01:28:21.864Z,72.71
2018-07-25T01:29:21.900Z,72.32
2018-07-25T01:30:21.891Z,72.71
2018-07-25T01:31:21.926Z,72.52
2018-07-25T01:32:22.049Z,72.90
2018-07-25T01:33:21.928Z,72.90
2018-07-25T01:34:21.964Z,72.42
2018-07-25T01:35:21.951Z,72.71
2018-07-25T01:36:21.940Z,72.42
2018-07-25T01:37:22.313Z,72.71
2018-07-25T01:38:22.006Z,72.99
2018-07-25T01:39:22.006Z,72.61
2018-07-25T01:40:22.045Z,72.99
2018-07-25T01:41:22.011Z,72.71
2018-07-25T01:42:22.214Z,73.09
2018-07-25T01:43:22.054Z,73.19
2018-07-25T01:44:22.042Z,73.38
2018-07-25T01:45:22.088Z,73.09
2018-07-25T01:46:22.081Z,73.19
2018-07-25T01:47:22.250Z,73.57
2018-07-25T01:48:22.115Z,73.57
2018-07-25T01:49:22.137Z,73.09
2018-07-25T01:50:22.134Z,73.57
2018-07-25T01:51:22.142Z,73.47
2018-07-25T01:52:22.280Z,73.38
2018-07-25T01:53:22.171Z,73.47
2018-07-25T01:54:22.219Z,73.57
2018-07-25T01:55:22.192Z,73.47
2018-07-25T01:56:22.409Z,73.38
2018-07-25T01:57:22.376Z,73.19
2018-07-25T01:58:22.268Z,72.90
2018-07-25T01:59:22.289Z,72.90
2018-07-25T02:00:22.260Z,72.80
2018-07-25T02:01:22.420Z,72.71
2018-07-25T02:02:22.431Z,72.32
2018-07-25T02:03:22.315Z,72.71
2018-07-25T02:04:22.337Z,72.80
2018-07-25T02:05:22.331Z,72.42
2018-07-25T02:06:22.335Z,72.13
2018-07-25T02:07:22.514Z,71.75
2018-07-25T02:08:22.475Z,71.94
2018-07-25T02:09:22.390Z,71.84
2018-07-25T02:10:22.608Z,72.03
2018-07-25T02:11:22.433Z,71.46
2018-07-25T02:12:22.531Z,70.89
2018-07-25T02:13:22.395Z,71.17
2018-07-25T02:14:22.468Z,70.98
2018-07-25T02:15:22.453Z,71.08
2018-07-25T02:16:22.455Z,70.70
2018-07-25T02:17:22.561Z,70.92
2018-07-25T02:18:22.525Z,70.64
2018-07-25T02:19:22.502Z,70.12
2018-07-25T02:20:22.505Z,70.06
2018-07-25T02:21:22.552Z,70.03
2018-07-25T02:22:22.676Z,70.15
2018-07-25T02:23:22.574Z,69.96
2018-07-25T02:24:22.555Z,69.77
2018-07-25T02:25:22.543Z,69.39
2018-07-25T02:26:22.580Z,69.20
2018-07-25T02:27:22.636Z,68.72
2018-07-25T02:28:22.739Z,68.81
2018-07-25T02:29:23.023Z,67.95
2018-07-25T02:30:22.637Z,68.91
2018-07-25T02:31:22.669Z,68.78
2018-07-25T02:32:22.660Z,69.07
2018-07-25T02:33:22.707Z,69.35
2018-07-25T02:34:22.807Z,68.97
2018-07-25T02:35:22.891Z,69.35
2018-07-25T02:36:22.884Z,69.45
2018-07-25T02:37:22.723Z,70.21
2018-07-25T02:40:23.012Z,69.74
2018-07-25T02:41:22.768Z,70.21
2018-07-25T02:42:22.804Z,70.03
2018-07-25T02:43:22.774Z,70.12
2018-07-25T02:45:22.968Z,70.31
2018-07-25T02:46:22.857Z,70.50
2018-07-25T02:47:22.841Z,70.70
2018-07-25T02:48:22.861Z,70.89
2018-07-25T02:49:22.884Z,70.89
2018-07-25T02:50:22.979Z,70.60
2018-07-25T02:51:22.894Z,71.08
2018-07-25T02:52:22.881Z,71.46
2018-07-25T02:53:23.122Z,71.94
2018-07-25T02:54:22.944Z,71.66
2018-07-25T02:55:23.107Z,72.03
2018-07-25T02:56:22.957Z,72.52
2018-07-25T02:57:22.988Z,72.03
2018-07-25T02:58:22.963Z,72.32
2018-07-25T02:59:23.018Z,72.61
2018-07-25T03:00:23.147Z,72.99
2018-07-25T03:01:23.014Z,72.71
2018-07-25T03:02:23.056Z,73.28
2018-07-25T03:03:23.039Z,73.09
2018-07-25T03:04:23.055Z,73.28
2018-07-25T03:05:23.160Z,74.15
2018-07-25T03:06:23.071Z,74.24
2018-07-25T03:07:23.491Z,74.43
2018-07-25T03:08:23.078Z,74.52
2018-07-25T03:09:23.147Z,74.24
2018-07-25T03:10:23.348Z,74.43
2018-07-25T03:11:23.137Z,74.43
2018-07-25T03:12:23.358Z,74.62
2018-07-25T03:13:23.161Z,75.39
2018-07-25T03:14:23.275Z,75.20
2018-07-25T03:15:23.355Z,74.72
2018-07-25T03:16:23.197Z,74.52
2018-07-25T03:17:23.213Z,74.91
2018-07-25T03:18:23.222Z,74.72
2018-07-25T03:19:23.235Z,75.29
2018-07-25T03:20:23.342Z,75.48
2018-07-25T03:21:23.266Z,75.01
2018-07-25T03:22:23.273Z,75.10
2018-07-25T03:23:23.285Z,74.24
2018-07-25T03:24:23.313Z,74.24
2018-07-25T03:25:23.407Z,74.33
2018-07-25T03:26:23.301Z,74.15
2018-07-25T03:27:23.345Z,73.76
2018-07-25T03:28:23.363Z,72.80
2018-07-25T03:29:23.355Z,73.09
2018-07-25T03:30:23.456Z,73.57
2018-07-25T03:31:23.376Z,72.80
2018-07-25T03:32:23.390Z,73.09
2018-07-25T03:33:23.420Z,72.52
2018-07-25T03:34:23.444Z,72.61
2018-07-25T03:35:23.576Z,72.32
2018-07-25T03:36:23.482Z,72.71
2018-07-25T03:37:23.471Z,72.23
2018-07-25T03:38:23.473Z,72.90
2018-07-25T03:39:23.480Z,72.71
2018-07-25T03:40:23.638Z,72.61
2018-07-25T03:41:23.500Z,72.52
2018-07-25T03:42:23.514Z,72.42
2018-07-25T03:43:23.528Z,72.61
2018-07-25T03:44:23.542Z,72.99
2018-07-25T03:45:23.552Z,72.99
2018-07-25T03:46:23.712Z,72.77
2018-07-25T03:47:23.573Z,73.15
2018-07-25T03:48:23.591Z,73.05
2018-07-25T03:49:23.602Z,73.54
2018-07-25T03:50:23.611Z,73.44
2018-07-25T03:51:23.619Z,73.34
2018-07-25T03:52:23.787Z,74.30
2018-07-25T03:53:23.654Z,74.49
2018-07-25T03:54:23.659Z,74.11
2018-07-25T03:55:23.673Z,74.58
2018-07-25T03:56:23.663Z,75.16
2018-07-25T03:57:23.844Z,74.97
2018-07-25T03:58:23.713Z,74.87
2018-07-25T03:59:23.752Z,74.87
2018-07-25T04:00:23.735Z,75.45
2018-07-25T04:01:23.743Z,75.16
2018-07-25T04:02:23.861Z,75.35
2018-07-25T04:03:23.748Z,75.35
2018-07-25T04:04:23.779Z,75.45
2018-07-25T04:05:23.796Z,75.26
2018-07-25T04:06:23.806Z,75.26
2018-07-25T04:07:23.970Z,75.07
2018-07-25T04:08:24.321Z,75.07
2018-07-25T04:09:23.821Z,75.45
2018-07-25T04:10:23.856Z,75.45
2018-07-25T04:11:23.845Z,75.26
2018-07-25T04:12:24.025Z,75.45
2018-07-25T04:13:23.884Z,75.35
2018-07-25T04:14:23.904Z,75.35
2018-07-25T04:15:23.916Z,75.26
2018-07-25T04:16:23.923Z,75.16
2018-07-25T04:17:24.088Z,75.45
2018-07-25T04:18:23.958Z,75.64
2018-07-25T04:19:23.958Z,75.64
2018-07-25T04:20:24.173Z,75.45
2018-07-25T04:21:23.989Z,75.16
2018-07-25T04:22:24.144Z,75.64
2018-07-25T04:23:24.007Z,75.73
2018-07-25T04:25:24.034Z,75.64
2018-07-25T04:26:24.048Z,76.21
2018-07-25T04:27:24.188Z,76.12
2018-07-25T04:28:24.074Z,75.73
2018-07-25T04:29:24.090Z,76.12
2018-07-25T04:30:24.097Z,76.69
2018-07-25T04:31:24.310Z,76.89
2018-07-25T04:32:24.220Z,76.69
2018-07-25T04:33:24.129Z,77.36
2018-07-25T04:34:24.139Z,77.17
2018-07-25T04:35:24.134Z,76.98
2018-07-25T04:36:24.159Z,77.26
2018-07-25T04:37:24.276Z,77.36
2018-07-25T04:38:24.189Z,77.55
2018-07-25T04:39:24.204Z,77.46
2018-07-25T04:40:24.415Z,76.98
2018-07-25T04:41:24.229Z,76.89
2018-07-25T04:42:24.331Z,76.31
2018-07-25T04:43:24.249Z,76.21
2018-07-25T04:44:24.461Z,76.60
2018-07-25T04:45:24.267Z,76.69
2018-07-25T04:46:24.400Z,75.83
2018-07-25T04:47:24.598Z,75.64
2018-07-25T04:48:24.306Z,76.31
2018-07-25T04:49:24.322Z,75.29
2018-07-25T04:50:24.333Z,75.48
2018-07-25T04:51:24.343Z,74.58
2018-07-25T04:52:24.506Z,74.58
2018-07-25T04:53:24.364Z,74.91
2018-07-25T04:54:24.388Z,74.72
2018-07-25T04:55:24.395Z,74.24
2018-07-25T04:56:24.391Z,74.72
2018-07-25T04:57:24.558Z,74.43
2018-07-25T04:58:24.407Z,74.15
2018-07-25T04:59:24.423Z,74.24
2018-07-25T05:00:24.456Z,74.05
2018-07-25T05:01:24.466Z,74.05
2018-07-25T05:02:24.626Z,73.38
2018-07-25T05:03:24.494Z,73.28
2018-07-25T05:04:24.505Z,73.76
2018-07-25T05:05:24.498Z,74.15
2018-07-25T05:06:24.525Z,73.66
2018-07-25T05:07:24.544Z,74.15
2018-07-25T05:08:24.702Z,74.33
2018-07-25T05:09:24.544Z,74.33
2018-07-25T05:10:24.574Z,74.91
2018-07-25T05:11:24.591Z,74.82
2018-07-25T05:12:24.620Z,75.39
2018-07-25T05:13:24.589Z,75.58
2018-07-25T05:14:24.875Z,76.15
2018-07-25T05:15:24.632Z,76.15
2018-07-25T05:16:24.643Z,76.06
2018-07-25T05:17:24.861Z,76.35
2018-07-25T05:18:24.659Z,76.25
2018-07-25T05:19:24.834Z,76.25
2018-07-25T05:20:24.702Z,76.25
2018-07-25T05:21:24.708Z,75.68
2018-07-25T05:22:24.729Z,76.06
2018-07-25T05:23:24.735Z,75.77
2018-07-25T05:24:24.902Z,76.25
2018-07-25T05:25:37.492Z,76.44
2018-07-25T05:26:24.774Z,76.64
2018-07-25T05:27:24.787Z,77.65
2018-07-25T05:28:24.800Z,77.88
2018-07-25T05:29:24.914Z,77.50
2018-07-25T05:30:24.817Z,77.50
2018-07-25T05:31:24.833Z,77.40
2018-07-25T05:32:24.842Z,77.40
2018-07-25T05:33:24.838Z,77.02
2018-07-25T05:34:25.016Z,76.82
2018-07-25T05:35:24.882Z,77.02
2018-07-25T05:36:25.074Z,76.44
2018-07-25T05:37:24.895Z,76.06
2018-07-25T05:38:24.918Z,75.77
2018-07-25T05:39:25.076Z,75.58
2018-07-25T05:40:24.926Z,75.87
2018-07-25T05:41:25.162Z,75.29
2018-07-25T05:42:24.968Z,75.58
2018-07-25T05:43:24.955Z,74.72
2018-07-25T05:44:25.093Z,75.10
2018-07-25T05:45:24.984Z,74.33
2018-07-25T05:46:25.020Z,74.43
2018-07-25T05:47:25.032Z,74.05
2018-07-25T05:48:25.044Z,74.15
2018-07-25T05:49:25.224Z,74.43
2018-07-25T05:50:25.047Z,74.33
2018-07-25T05:51:25.081Z,74.05
2018-07-25T05:52:25.094Z,74.33
2018-07-25T05:53:25.099Z,74.52
2018-07-25T05:54:25.285Z,74.24
2018-07-25T05:55:25.127Z,74.43
2018-07-25T05:56:25.137Z,74.43
2018-07-25T05:57:25.135Z,74.05
2018-07-25T05:58:25.166Z,74.43
2018-07-25T05:59:25.325Z,74.24
2018-07-25T06:00:25.181Z,74.43
2018-07-25T06:01:25.198Z,74.24
2018-07-25T06:02:25.196Z,74.43
2018-07-25T06:03:25.229Z,74.24
2018-07-25T06:04:25.487Z,74.43
2018-07-25T06:05:25.258Z,74.43
2018-07-25T06:06:25.265Z,74.43
2018-07-25T06:07:25.272Z,73.95
2018-07-25T06:08:25.282Z,74.24
2018-07-25T06:09:25.394Z,74.05
2018-07-25T06:10:25.306Z,74.24
2018-07-25T06:11:25.319Z,74.33
2018-07-25T06:12:25.337Z,74.15
2018-07-25T06:13:25.350Z,74.43
2018-07-25T06:14:25.515Z,74.33
2018-07-25T06:15:25.354Z,74.62
2018-07-25T06:16:25.388Z,74.82
2018-07-25T06:17:25.390Z,75.10
2018-07-25T06:18:25.388Z,74.62
2018-07-25T06:19:25.588Z,74.43
2018-07-25T06:20:25.518Z,74.72
2018-07-25T06:21:25.441Z,74.62
2018-07-25T06:22:25.466Z,74.62
2018-07-25T06:23:25.477Z,74.33
2018-07-25T06:24:25.785Z,74.43
2018-07-25T06:25:25.494Z,74.15
2018-07-25T06:26:25.491Z,74.05
2018-07-25T06:27:25.524Z,74.15
2018-07-25T06:28:25.537Z,74.33
2018-07-25T06:29:25.559Z,75.29
2018-07-25T06:30:25.862Z,75.10
2018-07-25T06:31:25.690Z,75.29
2018-07-25T06:32:25.588Z,75.39
2018-07-25T06:33:25.581Z,75.58
2018-07-25T06:34:25.613Z,75.58
2018-07-25T06:35:25.623Z,75.77
2018-07-25T06:36:25.783Z,76.44
2018-07-25T06:37:25.646Z,76.35
2018-07-25T06:38:25.654Z,76.92
2018-07-25T06:39:25.672Z,76.92
2018-07-25T06:40:25.681Z,77.69
2018-07-25T06:41:25.829Z,77.40
2018-07-25T06:42:25.709Z,77.59
2018-07-25T06:43:25.778Z,77.31
2018-07-25T06:44:25.734Z,77.31
2018-07-25T06:45:25.738Z,77.02
2018-07-25T06:46:25.883Z,76.73
2018-07-25T06:47:25.746Z,76.92
2018-07-25T06:48:25.782Z,77.02
2018-07-25T06:49:25.790Z,76.82
2018-07-25T06:50:25.799Z,77.11
2018-07-25T06:51:25.968Z,76.64
2018-07-25T06:52:25.830Z,76.44
2018-07-25T06:53:25.839Z,76.44
2018-07-25T06:54:25.856Z,75.96
2018-07-25T06:55:25.858Z,76.15
2018-07-25T06:56:25.970Z,75.58
2018-07-25T06:57:25.946Z,74.91
2018-07-25T06:58:25.897Z,75.20
2018-07-25T06:59:25.913Z,74.33
2018-07-25T07:00:25.925Z,74.43
2018-07-25T07:01:26.292Z,74.05
2018-07-25T07:02:25.952Z,74.05
2018-07-25T07:03:25.966Z,74.33
2018-07-25T07:04:25.977Z,74.91
2018-07-25T07:05:25.981Z,75.48
2018-07-25T07:06:26.101Z,75.45
2018-07-25T07:07:26.011Z,75.64
2018-07-25T07:08:26.023Z,75.77
2018-07-25T07:09:26.039Z,76.15
2018-07-25T07:10:26.049Z,76.02
2018-07-25T07:11:26.358Z,76.21
2018-07-25T07:12:26.075Z,76.50
2018-07-25T07:13:26.089Z,76.40
2018-07-25T07:14:26.092Z,76.25
2018-07-25T07:15:26.109Z,76.25
2018-07-25T07:16:26.276Z,76.12
2018-07-25T07:17:26.191Z,76.21
2018-07-25T07:18:26.148Z,76.40
2018-07-25T07:19:26.161Z,76.21
2018-07-25T07:20:26.175Z,76.21
2018-07-25T07:21:26.290Z,76.79
2018-07-25T07:22:26.197Z,76.69
2018-07-25T07:23:26.203Z,76.60
2018-07-25T07:24:26.224Z,77.08
2018-07-25T07:25:26.215Z,77.65
2018-07-25T07:26:26.392Z,77.65
2018-07-25T07:27:26.256Z,78.13
2018-07-25T07:28:26.267Z,77.94
2018-07-25T07:29:26.282Z,77.94
2018-07-25T07:30:26.269Z,77.55
2018-07-25T07:31:26.438Z,77.65
2018-07-25T07:32:26.311Z,78.80
2018-07-25T07:33:26.325Z,78.42
2018-07-25T07:34:26.319Z,78.22
2018-07-25T07:35:26.405Z,78.70
2018-07-25T07:36:26.508Z,78.80
2018-07-25T07:37:26.475Z,78.99
2018-07-25T07:38:26.430Z,78.80
2018-07-25T07:39:26.396Z,79.47
2018-07-25T07:40:26.412Z,79.57
2018-07-25T07:41:26.502Z,79.08
2018-07-25T07:42:26.434Z,79.85
2018-07-25T07:43:26.452Z,79.08
2018-07-25T07:44:26.460Z,79.75
2018-07-25T07:45:26.467Z,79.66
2018-07-25T07:46:26.632Z,79.37
2018-07-25T07:47:26.477Z,79.28
2018-07-25T07:48:26.504Z,79.18
2018-07-25T07:49:26.512Z,79.18
2018-07-25T07:50:26.528Z,79.47
2018-07-25T07:51:26.536Z,79.95
2018-07-25T07:52:26.704Z,79.47
2018-07-25T07:53:26.574Z,80.33
2018-07-25T07:54:26.577Z,80.14
2018-07-25T07:55:26.588Z,80.24
2018-07-25T07:56:26.604Z,80.52
2018-07-25T07:57:26.611Z,80.52
2018-07-25T07:58:26.778Z,80.71
2018-07-25T07:59:26.654Z,80.90
2018-07-25T08:00:26.629Z,80.52
2018-07-25T08:01:26.666Z,81.00
2018-07-25T08:02:26.669Z,80.90
2018-07-25T08:03:26.855Z,80.90
2018-07-25T08:04:26.702Z,81.20
2018-07-25T08:05:26.709Z,81.67
2018-07-25T08:06:26.699Z,81.48
2018-07-25T08:07:26.713Z,81.77
2018-07-25T08:08:26.900Z,81.77
2018-07-25T08:09:26.757Z,82.01
2018-07-25T08:10:26.745Z,82.49
2018-07-25T08:11:26.785Z,82.78
2018-07-25T08:12:26.791Z,83.73
2018-07-25T08:13:27.105Z,83.83
2018-07-25T08:14:26.818Z,84.83
2018-07-25T08:15:26.832Z,84.31
2018-07-25T08:16:26.824Z,84.31
2018-07-25T08:17:26.847Z,84.59
2018-07-25T08:18:26.955Z,84.45
2018-07-25T08:19:26.912Z,85.50
2018-07-25T08:20:26.888Z,85.31
2018-07-25T08:21:26.901Z,84.55
2018-07-25T08:22:26.893Z,84.55
2018-07-25T08:23:27.071Z,85.31
2018-07-25T08:24:26.934Z,85.31
2018-07-25T08:25:26.937Z,85.12
2018-07-25T08:26:26.957Z,84.74
2018-07-25T08:27:26.946Z,85.31
2018-07-25T08:28:27.277Z,85.31
2018-07-25T08:29:27.190Z,84.55
2018-07-25T08:30:27.006Z,84.26
2018-07-25T08:31:27.016Z,84.55
2018-07-25T08:32:27.020Z,84.35
2018-07-25T08:33:27.190Z,84.64
2018-07-25T08:34:27.057Z,84.55
2018-07-25T08:35:27.067Z,84.45
2018-07-25T08:36:27.073Z,85.21
2018-07-25T08:37:27.083Z,84.92
2018-07-25T08:38:27.396Z,85.50
2018-07-25T08:39:27.108Z,85.88
2018-07-25T08:40:27.124Z,86.46
2018-07-25T08:41:27.135Z,85.98
2018-07-25T08:42:27.147Z,86.65
2018-07-25T08:43:27.255Z,87.03
2018-07-25T08:44:27.175Z,87.13
2018-07-25T08:45:27.188Z,87.23
2018-07-25T08:46:27.199Z,86.65
2018-07-25T08:47:27.186Z,87.13
2018-07-25T08:48:27.495Z,86.27
2018-07-25T08:49:27.229Z,85.98
2018-07-25T08:50:27.221Z,85.69
2018-07-25T08:51:27.247Z,85.31
2018-07-25T08:52:27.278Z,85.88
2018-07-25T08:53:27.434Z,85.31
2018-07-25T08:54:27.283Z,85.88
2018-07-25T08:55:27.299Z,85.60
2018-07-25T08:56:27.293Z,85.41
2018-07-25T08:57:27.321Z,85.98
2018-07-25T08:58:27.486Z,85.88
2018-07-25T08:59:27.329Z,85.69
2018-07-25T09:00:27.560Z,86.08
2018-07-25T09:01:27.372Z,85.41
2018-07-25T09:02:27.370Z,85.21
2018-07-25T09:03:27.549Z,85.31
2018-07-25T09:04:27.410Z,85.12
2018-07-25T09:05:27.420Z,84.55
2018-07-25T09:06:27.463Z,84.55
2018-07-25T09:07:27.501Z,84.45
2018-07-25T09:08:27.707Z,84.45
2018-07-25T09:09:27.487Z,83.97
2018-07-25T09:10:27.481Z,83.87
2018-07-25T09:11:27.493Z,83.20
2018-07-25T09:12:27.500Z,83.20
2018-07-25T09:13:27.522Z,82.82
2018-07-25T09:14:27.678Z,82.82
2018-07-25T09:15:27.524Z,82.43
2018-07-25T09:16:27.569Z,82.34
2018-07-25T09:17:27.570Z,81.96
2018-07-25T09:18:27.574Z,81.96
2018-07-25T09:19:27.588Z,81.96
2018-07-25T09:20:27.752Z,82.15
2018-07-25T09:21:27.615Z,82.06
2018-07-25T09:22:27.624Z,81.86
2018-07-25T09:23:27.638Z,81.20
2018-07-25T09:24:27.648Z,81.77
2018-07-25T09:25:27.948Z,81.29
2018-07-25T09:26:27.675Z,81.38
2018-07-25T09:27:27.684Z,81.38
2018-07-25T09:28:27.710Z,81.48
2018-07-25T09:29:27.693Z,81.10
2018-07-25T09:30:27.821Z,81.48
2018-07-25T09:31:27.739Z,81.00
2018-07-25T09:32:27.747Z,81.00
2018-07-25T09:33:27.742Z,81.29
2018-07-25T09:34:27.940Z,81.67
2018-07-25T09:35:27.881Z,82.06
2018-07-25T09:36:27.791Z,82.15
2018-07-25T09:37:27.809Z,82.34
2018-07-25T09:38:27.800Z,82.43
2018-07-25T09:39:27.829Z,82.43
2018-07-25T09:40:27.991Z,82.15
2018-07-25T09:41:27.856Z,82.06
2018-07-25T09:42:27.864Z,83.01
2018-07-25T09:43:27.861Z,82.82
2018-07-25T09:44:27.878Z,82.82
2018-07-25T09:45:28.055Z,83.39
2018-07-25T09:46:27.991Z,83.30
2018-07-25T09:47:27.932Z,83.30
2018-07-25T09:48:27.960Z,83.30
2018-07-25T09:50:20.364Z,83.01
2018-07-25T09:50:28.066Z,83.01
2018-07-25T09:51:27.959Z,82.73
2018-07-25T09:52:28.012Z,82.82
2018-07-25T09:53:27.979Z,82.63
2018-07-25T09:54:27.996Z,82.06
2018-07-25T09:55:28.170Z,81.67
2018-07-25T09:56:29.210Z,82.06
2018-07-25T09:57:28.048Z,82.34
2018-07-25T09:59:20.510Z,82.15
2018-07-25T09:59:28.100Z,81.67
2018-07-25T10:00:28.217Z,82.15
2018-07-25T10:01:28.095Z,81.67
2018-07-25T10:02:28.129Z,82.24
2018-07-25T10:03:28.112Z,82.19
2018-07-25T10:04:28.147Z,81.10
2018-07-25T10:05:28.399Z,80.76
2018-07-25T10:06:28.161Z,81.23
2018-07-25T10:07:28.252Z,80.76
2018-07-25T10:08:28.176Z,80.08
2018-07-25T10:09:28.193Z,79.99
2018-07-25T10:10:28.304Z,79.89
2018-07-25T10:11:28.217Z,79.70
2018-07-25T10:12:28.226Z,79.80
2018-07-25T10:13:28.238Z,80.37
2018-07-25T10:14:28.249Z,80.37
2018-07-25T10:15:28.629Z,80.18
2018-07-25T10:16:28.296Z,81.13
2018-07-25T10:17:29.507Z,80.47
2018-07-25T10:18:41.022Z,80.18
2018-07-25T10:19:28.311Z,79.99
2018-07-25T10:20:28.475Z,79.70
2018-07-25T10:21:28.323Z,80.08
2018-07-25T10:22:28.352Z,80.18
2018-07-25T10:24:21.783Z,80.08
2018-07-25T10:24:28.373Z,80.08
2018-07-25T10:26:28.559Z,79.80
2018-07-25T10:27:28.499Z,79.03
2018-07-25T10:28:28.446Z,79.13
2018-07-25T10:29:28.441Z,79.13
2018-07-25T10:30:41.193Z,79.03
2018-07-25T10:31:48.680Z,78.55
2018-07-25T10:32:28.627Z,78.45
2018-07-25T10:33:28.475Z,77.97
2018-07-25T10:35:01.731Z,77.59
2018-07-25T10:36:14.450Z,77.40
2018-07-25T10:36:28.521Z,77.59
2018-07-25T10:37:28.545Z,77.69
2018-07-25T10:38:28.696Z,78.17
2018-07-25T10:40:21.000Z,77.69
2018-07-25T10:41:28.454Z,77.11
2018-07-25T10:41:29.264Z,77.11
2018-07-25T10:42:35.580Z,77.40
2018-07-25T10:47:29.794Z,77.11
2018-07-25T10:50:13.934Z,75.96
2018-07-25T10:51:13.956Z,75.77
2018-07-25T10:52:26.698Z,75.20
2018-07-25T10:55:14.126Z,75.39
2018-07-25T10:57:06.411Z,75.20
2018-07-25T10:57:14.030Z,75.10
2018-07-25T10:58:14.022Z,75.68
2018-07-25T10:59:27.781Z,75.10
2018-07-25T11:00:15.525Z,74.62
2018-07-25T11:01:27.810Z,74.33
2018-07-25T11:02:20.333Z,75.29
2018-07-25T11:29:00.562Z,72.17
2018-07-25T11:30:24.680Z,71.98
2018-07-25T11:31:58.924Z,71.21
2018-07-25T11:31:59.946Z,70.73
2018-07-25T11:32:59.725Z,70.76
2018-07-25T11:33:59.855Z,69.81
2018-07-25T11:35:34.177Z,69.23
2018-07-25T11:37:45.573Z,68.37
2018-07-25T11:38:50.654Z,68.85
2018-07-25T11:40:44.667Z,68.66
2018-07-25T11:41:44.433Z,66.67
2018-07-25T11:43:43.381Z,66.10
2018-07-25T11:43:44.517Z,66.10
2018-07-25T11:46:29.308Z,65.91
2018-07-25T11:49:14.900Z,66.00
2018-07-25T11:50:50.957Z,66.49
2018-07-25T11:51:50.257Z,64.09
2018-07-25T11:52:39.422Z,64.09
2018-07-25T11:53:27.489Z,64.18
2018-07-25T11:54:46.980Z,63.03
2018-07-25T11:55:26.543Z,62.16
2018-07-25T11:56:21.067Z,61.59
2018-07-25T12:44:14.921Z,54.83
2018-07-25T12:46:06.910Z,54.74
2018-07-25T12:46:14.705Z,54.83
2018-07-25T12:47:33.735Z,54.93
2018-07-25T13:21:26.421Z,45.90
2018-07-25T13:23:25.200Z,45.80
2018-07-25T13:23:27.665Z,45.90
2018-07-25T13:24:32.741Z,45.03
2018-07-25T13:43:12.602Z,40.37
2018-07-25T13:46:01.897Z,38.45
2018-07-25T13:47:55.757Z,38.64
2018-07-25T13:47:57.095Z,38.54
2018-07-25T13:57:07.579Z,37.21
2018-07-25T14:00:21.131Z,37.41
2018-07-25T14:15:27.819Z,38.53
2018-07-25T14:17:01.154Z,38.62
2018-07-25T14:41:56.212Z,37.02
2018-07-25T14:42:56.078Z,36.25
2018-07-25T14:43:56.097Z,35.50
2018-07-25T14:44:56.121Z,35.58
2018-07-25T14:45:56.132Z,35.96
2018-07-25T14:46:56.473Z,35.77
2018-07-25T14:47:56.169Z,35.48
2018-07-25T14:48:56.192Z,35.96
2018-07-25T14:49:56.193Z,36.43
2018-07-25T14:50:56.432Z,36.71
2018-07-25T14:51:56.399Z,36.71
2018-07-25T14:52:56.257Z,36.04
2018-07-25T14:53:56.267Z,36.43
2018-07-25T14:54:56.306Z,36.15
2018-07-25T14:55:56.305Z,36.36
2018-07-25T14:56:56.537Z,35.11
2018-07-25T14:57:56.363Z,33.68
2018-07-25T14:58:56.386Z,32.92
2018-07-25T14:59:56.406Z,32.15
2018-07-25T15:00:56.422Z,32.34
2018-07-25T15:01:56.442Z,31.68
2018-07-25T15:02:56.621Z,31.78
2018-07-25T15:03:56.488Z,30.91
2018-07-25T15:04:56.509Z,29.85
2018-07-25T15:05:56.513Z,29.38
2018-07-25T15:06:56.549Z,28.51
2018-07-25T15:07:56.704Z,28.62
2018-07-25T15:08:56.590Z,28.62
2018-07-25T15:09:56.610Z,27.85
2018-07-25T15:10:56.614Z,27.37
2018-07-25T15:11:56.658Z,26.41
2018-07-25T15:12:56.837Z,25.16
2018-07-25T15:13:56.704Z,24.68
2018-07-25T15:14:56.727Z,24.29
2018-07-25T15:15:56.749Z,23.61
2018-07-25T15:16:56.774Z,23.71
2018-07-25T15:17:57.131Z,24.28
2018-07-25T15:18:56.819Z,24.48
2018-07-25T15:19:56.838Z,24.38
2018-07-25T15:20:56.865Z,24.57
2018-07-25T15:21:56.888Z,24.49
2018-07-25T15:22:57.047Z,24.10
2018-07-25T15:23:56.928Z,24.19
2018-07-25T15:24:57.149Z,23.42
2018-07-25T15:25:56.975Z,22.55
2018-07-25T15:26:56.998Z,22.94
2018-07-25T15:27:57.172Z,23.33
2018-07-25T15:28:57.088Z,23.42
2018-07-25T15:29:57.068Z,23.33
2018-07-25T15:30:57.088Z,23.52
2018-07-25T15:31:57.106Z,23.13
2018-07-25T15:32:57.386Z,22.94
2018-07-25T15:33:57.154Z,23.81
2018-07-25T15:34:57.178Z,23.14
2018-07-25T15:35:57.203Z,23.24
2018-07-25T15:36:57.204Z,22.85
2018-07-25T15:37:57.378Z,22.47
2018-07-25T15:38:57.297Z,22.66
2018-07-25T15:39:57.298Z,23.33
2018-07-25T15:40:57.310Z,22.37
2018-07-25T15:41:57.318Z,22.47
2018-07-25T15:42:57.608Z,22.85
2018-07-25T15:43:57.379Z,22.37
2018-07-25T15:44:57.405Z,22.66
2018-07-25T15:45:57.433Z,21.98
2018-07-25T15:46:57.523Z,21.99
2018-07-25T15:47:57.469Z,22.28
2018-07-25T15:48:57.622Z,22.27
2018-07-25T15:49:57.521Z,22.75
2018-07-25T15:50:57.515Z,22.75
2018-07-25T15:51:57.566Z,23.33
2018-07-25T15:52:57.629Z,22.94
2018-07-25T15:53:57.710Z,22.66
2018-07-25T15:54:57.626Z,22.47
2018-07-25T15:55:57.648Z,22.66
2018-07-25T15:56:57.654Z,23.03
2018-07-25T15:57:57.694Z,23.81
2018-07-25T15:58:57.819Z,23.61
2018-07-25T15:59:57.742Z,22.45
2018-07-25T16:00:57.762Z,22.75
2018-07-25T16:01:57.783Z,22.27
2018-07-25T16:02:57.789Z,21.50
2018-07-25T16:03:57.956Z,22.09
2018-07-25T16:04:57.851Z,21.80
2018-07-25T16:05:57.869Z,21.02